Time;durP1;ratioP1;P1;durP2;ratioP2;P2;SDS_P1;SDS_P2;PMS_P1;PMS_P2;Temp;Humidity;BMP_temperature;BMP_pressure;BME280_temperature;BME280_humidity;BME280_pressure;Samples;Min_cycle;Max_cycle;Signal;HPM_P1;HPM_P2
2022/01/28 00:02:31;;;;;;;589.60;74.40;;;;;;;;;;5036550;28;20613;-46
2022/01/28 00:04:58;;;;;;;442.63;41.60;;;;;;;;;;5038937;28;20476;-46
2022/01/28 00:07:26;;;;;;;529.87;50.17;;;;;;;;;;5040051;28;21013;-46
2022/01/28 00:09:53;;;;;;;362.70;45.20;;;;;;;;;;5036392;28;20491;-46
2022/01/28 00:12:20;;;;;;;417.10;42.03;;;;;;;;;;5043574;28;20487;-46
2022/01/28 00:14:53;;;;;;;355.77;42.87;;;;;;;;;;5042319;28;20479;-47
2022/01/28 00:21:01;;;;;;;458.20;61.47;;;;;;;;;;5019834;28;20478;-46
2022/01/28 00:37:26;;;;;;;559.77;52.70;;;;;;;;;;5028996;28;20488;-46
2022/01/28 00:39:55;;;;;;;281.83;26.77;;;;;;;;;;5061192;28;20956;-46
2022/01/28 00:42:22;;;;;;;416.90;54.83;;;;;;;;;;5036301;28;20674;-45
2022/01/28 00:44:49;;;;;;;273.37;29.47;;;;;;;;;;5060552;28;20527;-46
2022/01/28 00:47:16;;;;;;;408.93;35.77;;;;;;;;;;5042728;28;20547;-46
2022/01/28 00:49:43;;;;;;;211.43;21.63;;;;;;;;;;5034568;28;20488;-46
2022/01/28 00:52:10;;;;;;;238.97;22.47;;;;;;;;;;5047364;28;20475;-46
2022/01/28 00:54:37;;;;;;;117.73;14.97;;;;;;;;;;5059154;28;20479;-45
2022/01/28 00:57:05;;;;;;;212.57;25.33;;;;;;;;;;5060524;28;20480;-46
2022/01/28 00:59:32;;;;;;;175.07;19.10;;;;;;;;;;5062967;28;20471;-46
2022/01/28 01:01:59;;;;;;;246.73;23.77;;;;;;;;;;5061742;28;20463;-45
2022/01/28 01:04:26;;;;;;;294.30;32.93;;;;;;;;;;5062338;28;20488;-47
2022/01/28 01:06:54;;;;;;;200.47;24.13;;;;;;;;;;5059683;28;20538;-45
2022/01/28 01:09:21;;;;;;;370.20;38.47;;;;;;;;;;5061037;28;20479;-45
2022/01/28 01:11:48;;;;;;;209.70;21.83;;;;;;;;;;5062411;28;20545;-46
2022/01/28 01:14:16;;;;;;;255.13;27.87;;;;;;;;;;5063218;28;20479;-46
2022/01/28 01:17:05;;;;;;;83.10;13.87;;;;;;;;;;5061265;28;20475;-46
2022/01/28 01:19:36;;;;;;;165.43;22.13;;;;;;;;;;5056114;28;20997;-46
2022/01/28 01:22:04;;;;;;;174.57;22.20;;;;;;;;;;5037690;28;20501;-46
2022/01/28 01:24:36;;;;;;;207.40;25.00;;;;;;;;;;5073250;28;20570;-46
2022/01/28 01:27:03;;;;;;;125.43;17.80;;;;;;;;;;5054905;28;20476;-45
2022/01/28 01:29:31;;;;;;;174.03;20.73;;;;;;;;;;5056399;28;20486;-45
2022/01/28 01:32:03;;;;;;;216.73;23.20;;;;;;;;;;5059998;28;20474;-46
2022/01/28 01:34:30;;;;;;;170.47;19.53;;;;;;;;;;5044609;28;20485;-46
2022/01/28 01:36:57;;;;;;;155.37;19.33;;;;;;;;;;5053994;28;20602;-46
2022/01/28 01:39:29;;;;;;;328.70;30.33;;;;;;;;;;5057226;28;20522;-46
2022/01/28 01:42:00;;;;;;;215.13;22.23;;;;;;;;;;5057953;28;21091;-45
2022/01/28 01:44:37;;;;;;;280.50;26.50;;;;;;;;;;5062195;28;20483;-46
2022/01/28 01:52:01;;;;;;;230.37;26.53;;;;;;;;;;5060070;28;20554;-46
2022/01/28 01:52:52;;;;;;;169.90;23.40;;;;;;;;;;5059600;28;20559;-46
2022/01/28 01:55:20;;;;;;;390.17;40.17;;;;;;;;;;5059579;28;20481;-46
2022/01/28 01:57:47;;;;;;;212.77;25.97;;;;;;;;;;5058516;28;21077;-46
2022/01/28 02:00:16;;;;;;;446.70;47.90;;;;;;;;;;5057707;28;20479;-46
2022/01/28 02:02:44;;;;;;;140.60;20.60;;;;;;;;;;5049630;28;20479;-45
2022/01/28 02:05:11;;;;;;;329.27;34.57;;;;;;;;;;5050273;28;21090;-46
2022/01/28 02:07:39;;;;;;;173.13;23.07;;;;;;;;;;5059507;28;20471;-46
2022/01/28 02:10:06;;;;;;;178.97;20.53;;;;;;;;;;5060432;28;20476;-44
2022/01/28 02:12:44;;;;;;;150.53;21.87;;;;;;;;;;5061101;28;21263;-45
2022/01/28 02:15:11;;;;;;;293.83;30.90;;;;;;;;;;5058297;28;20486;-44
2022/01/28 02:17:38;;;;;;;195.83;27.03;;;;;;;;;;5059743;28;20517;-43
2022/01/28 02:20:09;;;;;;;136.90;21.20;;;;;;;;;;5060802;28;20475;-44
2022/01/28 02:22:37;;;;;;;147.90;19.67;;;;;;;;;;5057438;28;20486;-44
2022/01/28 02:25:05;;;;;;;328.93;38.87;;;;;;;;;;5066094;28;20962;-45
2022/01/28 02:27:32;;;;;;;173.80;20.93;;;;;;;;;;5060321;28;20488;-45
2022/01/28 02:29:59;;;;;;;167.57;20.90;;;;;;;;;;5061507;28;20491;-44
2022/01/28 02:32:26;;;;;;;232.40;24.30;;;;;;;;;;5060295;28;20484;-44
2022/01/28 02:34:53;;;;;;;211.50;22.67;;;;;;;;;;5060814;28;20475;-46
2022/01/28 02:37:22;;;;;;;357.40;35.13;;;;;;;;;;5059061;28;20602;-45
2022/01/28 02:39:52;;;;;;;82.03;9.17;;;;;;;;;;5060520;28;20879;-45
2022/01/28 02:42:27;;;;;;;401.37;41.17;;;;;;;;;;5059649;28;20475;-44
2022/01/28 02:44:56;;;;;;;192.37;22.70;;;;;;;;;;5061164;28;20803;-45
2022/01/28 02:47:32;;;;;;;358.63;36.20;;;;;;;;;;5058576;28;20476;-45
2022/01/28 02:49:59;;;;;;;178.13;21.27;;;;;;;;;;5062032;28;21121;-44
2022/01/28 02:52:35;;;;;;;305.97;32.90;;;;;;;;;;5059570;28;20566;-45
2022/01/28 02:55:08;;;;;;;243.30;24.90;;;;;;;;;;5059901;28;20482;-45
2022/01/28 02:57:39;;;;;;;70.83;13.47;;;;;;;;;;5058181;28;20532;-45
2022/01/28 03:00:07;;;;;;;208.80;24.00;;;;;;;;;;5053388;28;20562;-45
2022/01/28 03:02:34;;;;;;;1608.67;225.40;;;;;;;;;;4972576;28;20500;-44
2022/01/28 03:05:29;;;;;;;168.20;20.13;;;;;;;;;;4961421;28;20491;-45
2022/01/28 03:07:55;;;;;;;175.40;25.00;;;;;;;;;;5049745;28;20476;-44
2022/01/28 03:10:29;;;;;;;368.00;36.73;;;;;;;;;;5060601;28;20479;-45
2022/01/28 03:13:13;;;;;;;282.67;29.80;;;;;;;;;;5060176;28;20472;-45
2022/01/28 03:15:42;;;;;;;203.57;22.20;;;;;;;;;;5043844;28;20475;-46
2022/01/28 03:18:12;;;;;;;309.53;33.57;;;;;;;;;;5049368;28;20479;-45
2022/01/28 03:20:43;;;;;;;174.50;23.50;;;;;;;;;;5060893;28;20902;-46
2022/01/28 03:23:11;;;;;;;381.17;39.80;;;;;;;;;;5060069;28;21379;-45
2022/01/28 03:25:43;;;;;;;199.27;25.10;;;;;;;;;;5060451;28;20490;-45
2022/01/28 03:28:10;;;;;;;224.23;23.17;;;;;;;;;;5059559;28;20479;-45
2022/01/28 03:30:37;;;;;;;277.60;32.63;;;;;;;;;;5060924;28;21018;-45
2022/01/28 03:33:04;;;;;;;375.73;40.37;;;;;;;;;;5058271;28;20534;-46
2022/01/28 03:35:33;;;;;;;195.37;21.80;;;;;;;;;;5058424;28;20513;-45
2022/01/28 03:38:00;;;;;;;176.13;20.47;;;;;;;;;;5059372;28;20501;-46
2022/01/28 03:40:27;;;;;;;276.23;28.60;;;;;;;;;;5057717;28;20848;-45
2022/01/28 03:42:56;;;;;;;298.33;31.57;;;;;;;;;;5060599;28;20491;-46
2022/01/28 03:45:23;;;;;;;383.53;39.03;;;;;;;;;;5060295;28;20475;-45
2022/01/28 03:47:50;;;;;;;204.30;28.87;;;;;;;;;;5056891;28;20977;-45
2022/01/28 03:50:17;;;;;;;490.73;53.00;;;;;;;;;;5048913;28;20467;-45
2022/01/28 03:52:44;;;;;;;226.50;30.00;;;;;;;;;;5057129;28;20980;-46
2022/01/28 03:55:11;;;;;;;126.27;21.23;;;;;;;;;;5059362;28;20558;-45
2022/01/28 03:57:38;;;;;;;180.40;24.43;;;;;;;;;;5056106;28;20566;-46
2022/01/28 04:00:08;;;;;;;193.13;28.03;;;;;;;;;;5059167;28;20487;-46
2022/01/28 04:02:38;;;;;;;151.20;22.27;;;;;;;;;;5058176;28;20492;-45
2022/01/28 04:13:36;;;;;;;128.23;16.70;;;;;;;;;;5039405;28;20544;-46
2022/01/28 04:16:27;;;;;;;163.27;18.60;;;;;;;;;;5063157;28;20868;-45
2022/01/28 04:18:53;;;;;;;139.13;22.63;;;;;;;;;;5051893;28;20479;-46
2022/01/28 04:21:20;;;;;;;316.93;29.97;;;;;;;;;;5061475;28;21024;-45
2022/01/28 04:23:47;;;;;;;209.13;23.30;;;;;;;;;;5063584;28;20502;-46
2022/01/28 04:26:14;;;;;;;233.00;20.97;;;;;;;;;;5062960;28;20480;-45
2022/01/28 04:28:41;;;;;;;151.03;20.77;;;;;;;;;;5061180;28;20540;-45
2022/01/28 04:31:09;;;;;;;115.57;21.87;;;4.60;99.90;;;;;;5063106;28;20479;-45
2022/01/28 04:33:36;;;;;;;129.57;18.97;;;;;;;;;;5046159;28;20911;-46
2022/01/28 04:36:05;;;;;;;181.93;25.13;;;;;;;;;;5061622;28;20500;-46
2022/01/28 04:38:38;;;;;;;140.37;18.80;;;;;;;;;;5062285;28;20479;-44
2022/01/28 04:41:13;;;;;;;225.40;24.47;;;;;;;;;;5060509;28;20538;-46
2022/01/28 04:43:45;;;;;;;223.83;27.03;;;;;;;;;;5063020;28;21422;-45
2022/01/28 04:46:23;;;;;;;340.03;33.90;;;;;;;;;;5062416;28;20953;-45
2022/01/28 04:48:57;;;;;;;162.10;19.07;;;;;;;;;;5051357;28;20474;-46
2022/01/28 04:51:42;;;;;;;358.00;37.23;;;;;;;;;;5049210;28;21027;-47
2022/01/28 04:54:22;;;;;;;247.20;24.90;;;;;;;;;;5061108;28;20993;-44
2022/01/28 04:56:57;;;;;;;161.67;19.87;;;;;;;;;;5047437;28;20972;-45
2022/01/28 05:02:26;;;;;;;195.63;29.63;;;;;;;;;;5058214;28;21009;-45
2022/01/28 05:05:09;;;;;;;182.50;27.57;;;;;;;;;;5049329;28;20985;-44
2022/01/28 05:08:05;;;;;;;154.70;22.33;;;;;;;;;;5056005;28;20476;-44
2022/01/28 05:13:55;;;;;;;509.90;56.47;;;;;;;;;;5061852;28;20468;-45
2022/01/28 05:16:53;;;;;;;483.87;47.70;;;;;;;;;;5061406;28;20482;-44
2022/01/28 05:25:34;;;;;;;249.60;30.80;;;;;;;;;;5050530;28;20517;-46
2022/01/28 05:27:55;;;;;;;163.33;26.67;;;;;;;;;;5059173;28;20979;-46
2022/01/28 05:30:22;;;;;;;289.10;35.87;;;;;;;;;;5062928;28;20482;-46
2022/01/28 05:32:49;;;;;;;248.17;33.23;;;;;;;;;;5063142;28;20479;-46
2022/01/28 05:35:17;;;;;;;460.80;53.03;;;;;;;;;;5076623;28;21059;-46
2022/01/28 05:37:44;;;;;;;172.90;23.70;;;;;;;;;;5062818;28;20484;-46
2022/01/28 05:40:12;;;;;;;295.10;35.77;;;;;;;;;;5061007;28;20475;-45
2022/01/28 05:42:39;;;;;;;238.07;25.80;;;;;;;;;;5061288;28;20548;-46
2022/01/28 05:45:06;;;;;;;230.93;28.77;;;;;;;;;;5060586;28;20540;-46
2022/01/28 05:47:36;;;;;;;212.23;29.63;;;;;;;;;;5054109;28;20492;-45
2022/01/28 05:50:03;;;;;;;181.90;23.37;;;;;;;;;;5061746;28;20816;-45
2022/01/28 05:52:32;;;;;;;252.73;28.00;;;;;;;;;;5060174;28;21036;-46
2022/01/28 05:54:59;;;;;;;185.37;23.53;;;;;;;;;;5060363;28;20499;-47
2022/01/28 05:57:26;;;;;;;326.70;38.07;;;;;;;;;;5060522;28;20467;-46
2022/01/28 05:59:53;;;;;;;179.07;27.03;;;;;;;;;;5061970;28;20529;-46
2022/01/28 06:02:20;;;;;;;520.67;54.53;;;;;;;;;;5059909;28;20546;-46
2022/01/28 06:04:47;;;;;;;230.17;29.30;;;;;;;;;;5062349;28;20485;-46
2022/01/28 06:07:14;;;;;;;414.10;36.90;;;;;;;;;;5059361;28;20480;-45
2022/01/28 06:09:43;;;;;;;227.47;28.83;;;;;;;;;;5061531;28;20492;-46
2022/01/28 06:12:10;;;;;;;300.87;31.83;;;;;;;;;;5060844;28;21865;-46
2022/01/28 06:14:37;;;;;;;255.27;29.93;;;;;;;;;;5061645;28;21048;-46
2022/01/28 06:17:05;;;;;;;224.73;26.50;;;;;;;;;;5060029;28;20526;-46
2022/01/28 06:19:32;;;;;;;254.57;27.70;;;;;;;;;;5061538;28;20548;-46
2022/01/28 06:21:59;;;;;;;183.70;19.90;;;;;;;;;;5061607;28;20488;-46
2022/01/28 06:24:26;;;;;;;259.70;27.70;;;;;;;;;;5060034;28;20484;-46
2022/01/28 06:26:54;;;;;;;224.20;29.70;;;;;;;;;;5058750;28;20487;-45
2022/01/28 06:29:21;;;;;;;362.50;43.10;;;;;;;;;;5059398;28;20514;-46
2022/01/28 06:31:49;;;;;;;161.30;22.77;;;;;;;;;;5061434;28;20541;-46
2022/01/28 06:34:16;;;;;;;288.60;39.13;;;;;;;;;;5060634;28;20490;-46
2022/01/28 06:36:43;;;;;;;195.50;22.13;;;;;;;;;;5059704;28;20486;-45
2022/01/28 06:39:10;;;;;;;372.03;38.07;;;;;;;;;;5060784;28;20480;-46
2022/01/28 06:41:37;;;;;;;228.43;27.60;;;;;;;;;;5060309;28;20485;-46
2022/01/28 06:44:06;;;;;;;204.10;22.63;;;;;;;;;;5057982;28;20483;-46
2022/01/28 06:46:33;;;;;;;304.50;30.97;;;;;;;;;;5060198;28;20489;-46
2022/01/28 06:49:00;;;;;;;282.47;30.27;;;;;;;;;;5061317;28;20475;-49
2022/01/28 06:51:28;;;;;;;256.57;28.23;;;;;;;;;;5056162;28;20549;-45
2022/01/28 06:53:55;;;;;;;212.00;24.83;;;;;;;;;;5056183;28;20479;-46
2022/01/28 06:56:22;;;;;;;547.43;55.73;;;;;;;;;;5056440;28;20485;-46
2022/01/28 06:58:49;;;;;;;271.20;29.93;;;;;;;;;;5059356;28;20951;-46
2022/01/28 07:01:17;;;;;;;424.83;43.10;;;;;;;;;;5059327;28;20484;-46
2022/01/28 07:03:44;;;;;;;131.53;19.67;;;;;;;;;;5061177;28;20541;-46
2022/01/28 07:06:13;;;;;;;327.83;35.37;;;;;;;;;;5060054;28;20478;-45
2022/01/28 07:08:40;;;;;;;140.23;18.57;;;;;;;;;;5059925;28;20480;-46
2022/01/28 07:11:07;;;;;;;192.17;22.33;;;;;;;;;;5060438;28;20839;-46
2022/01/28 07:13:34;;;;;;;134.30;18.23;;;;;;;;;;5058252;28;20540;-46
2022/01/28 07:16:01;;;;;;;266.80;25.80;;;;;;;;;;5058215;28;21250;-46
2022/01/28 07:18:29;;;;;;;280.00;27.87;;;;;;;;;;5057682;28;20481;-45
2022/01/28 07:20:56;;;;;;;236.00;31.20;;;;;;;;;;5060761;28;20480;-46
2022/01/28 07:23:23;;;;;;;457.43;37.27;;;;;;;;;;5059062;28;20556;-46
2022/01/28 07:25:51;;;;;;;302.17;30.00;;;;;;;;;;5059737;28;20484;-47
2022/01/28 07:28:18;;;;;;;432.30;44.97;;;;;;;;;;5058645;28;20540;-46
2022/01/28 07:30:45;;;;;;;292.60;27.67;;;;;;;;;;5057430;28;20482;-45
2022/01/28 07:33:12;;;;;;;372.40;39.40;;;;;;;;;;5051095;28;20521;-45
2022/01/28 07:35:40;;;;;;;254.70;25.50;;;;;;;;;;5057010;28;21207;-46
2022/01/28 07:38:07;;;;;;;261.33;27.93;;;;;;;;;;5054905;28;20484;-45
2022/01/28 07:40:34;;;;;;;251.37;28.40;;;;;;;;;;5058998;28;20528;-45
2022/01/28 07:43:01;;;;;;;383.10;43.70;;;;;;;;;;5033172;28;20528;-46
2022/01/28 07:45:28;;;;;;;299.77;34.13;;;;;;;;;;5042868;28;20484;-45
2022/01/28 07:47:56;;;;;;;232.53;33.83;;;;;;;;;;5023134;28;20555;-45
2022/01/28 07:50:23;;;;;;;452.33;86.07;;;;;;;;;;5043144;28;20546;-45
2022/01/28 07:52:51;;;;;;;297.43;69.40;;;;;;;;;;5045022;28;20479;-46
2022/01/28 07:55:18;;;;;;;499.30;95.13;;;;;;;;;;5042699;28;20538;-50
2022/01/28 07:57:45;;;;;;;493.63;138.70;;;;;;;;;;5036181;28;20549;-45
2022/01/28 08:00:14;;;;;;;557.00;151.33;;;;;;;;;;5035701;28;20488;-45
2022/01/28 08:02:42;;;;;;;525.83;130.93;;;;;;;;;;5038526;28;20970;-45
2022/01/28 08:05:10;;;;;;;501.77;146.13;;;;;;;;;;5028687;28;20475;-46
2022/01/28 08:07:37;;;;;;;346.97;100.17;;;;;;;;;;5023799;28;20502;-46
2022/01/28 08:10:05;;;;;;;315.67;39.20;;;;;;;;;;5026804;28;20491;-44
2022/01/28 08:12:32;;;;;;;263.00;31.90;;;;;;;;;;5019586;28;20481;-46
2022/01/28 08:14:59;;;;;;;256.83;37.30;;;;;;;;;;5027271;28;20534;-46
2022/01/28 08:17:26;;;;;;;272.00;36.30;;;;;;;;;;5029299;28;20534;-45
2022/01/28 08:19:53;;;;;;;216.93;32.37;;;;;;;;;;5026159;28;20489;-46
2022/01/28 08:22:21;;;;;;;371.43;45.27;;;;;;;;;;5028297;28;20512;-46
2022/01/28 08:24:48;;;;;;;115.43;29.23;;;;;;;;;;5025285;28;20482;-46
2022/01/28 08:27:16;;;;;;;241.60;38.57;;;;;;;;;;5019961;28;20521;-46
2022/01/28 08:29:43;;;;;;;159.10;29.90;;;;;;;;;;5027096;28;21165;-46
2022/01/28 08:32:10;;;;;;;115.30;26.80;;;;;;;;;;5024401;28;20490;-45
2022/01/28 08:34:37;;;;;;;90.60;25.37;;;;;;;;;;5025598;28;20492;-54
2022/01/28 08:37:04;;;;;;;87.27;23.57;;;;;;;;;;5021779;28;20531;-45
2022/01/28 08:39:32;;;;;;;332.20;35.60;;;;;;;;;;5023672;28;20481;-45
2022/01/28 08:41:59;;;;;;;412.97;44.40;;;;;;;;;;5031291;28;20500;-45
2022/01/28 08:44:28;;;;;;;400.67;41.23;;;;;;;;;;5025418;28;20481;-45
2022/01/28 08:46:55;;;;;;;343.07;34.57;;;;;;;;;;5026586;28;20484;-46
2022/01/28 08:49:22;;;;;;;541.20;49.37;;;;;;;;;;5021553;28;20484;-47
2022/01/28 08:51:49;;;;;;;150.93;23.07;;;;;;;;;;5026310;28;20515;-46
2022/01/28 08:54:16;;;;;;;233.50;29.67;;;;;;;;;;5029654;28;20488;-46
2022/01/28 08:56:45;;;;;;;104.33;25.40;;;;;;;;;;5018284;28;20569;-46
2022/01/28 08:59:12;;;;;;;196.70;31.77;;;;;;;;;;5029977;28;20507;-46
2022/01/28 09:01:40;;;;;;;113.27;21.57;;;;;;;;;;5023848;28;20486;-47
2022/01/28 09:04:07;;;;;;;168.40;25.33;;;;;;;;;;5027641;28;20522;-46
2022/01/28 09:06:34;;;;;;;306.87;39.57;;;;;;;;;;5020149;28;20548;-50
2022/01/28 09:09:02;;;;;;;329.63;31.73;;;;;;;;;;5025349;28;20995;-46
2022/01/28 09:11:44;;;;;;;316.33;26.00;;;;;;;;;;5022866;28;20882;-46
2022/01/28 09:14:11;;;;;;;418.37;41.17;;;;;;;;;;5034227;28;20600;-46
2022/01/28 09:16:38;;;;;;;487.80;77.57;;;;;;;;;;5021463;28;20856;-46
2022/01/28 09:19:07;;;;;;;320.87;44.73;;;;;;;;;;5031773;28;20486;-45
2022/01/28 09:21:34;;;;;;;181.33;25.03;;;;;;;;;;5031272;28;20483;-45
2022/01/28 09:24:01;;;;;;;48.63;15.40;;;;;;;;;;5027335;28;20910;-46
2022/01/28 09:26:29;;;;;;;86.17;23.90;;;5.20;99.90;;;;;;5039529;28;20964;-46
2022/01/28 09:28:56;;;;;;;64.67;19.93;;;;;;;;;;5038658;28;20494;-46
2022/01/28 09:31:23;;;;;;;131.77;28.57;;;5.20;99.90;;;;;;5046818;28;20475;-45
2022/01/28 09:33:50;;;;;;;137.77;26.33;;;;;;;;;;5042469;28;20476;-46
2022/01/28 09:36:19;;;;;;;124.23;28.40;;;4.70;99.90;;;;;;5042754;28;21055;-45
2022/01/28 09:38:46;;;;;;;100.10;21.50;;;;;;;;;;5043081;28;20571;-46
2022/01/28 09:41:13;;;;;;;99.33;21.03;;;;;;;;;;5043258;28;20868;-46
2022/01/28 09:43:40;;;;;;;60.47;20.30;;;;;;;;;;5037567;28;20958;-45
2022/01/28 09:46:07;;;;;;;81.43;21.87;;;;;;;;;;5046480;28;20504;-46
2022/01/28 09:48:34;;;;;;;164.87;21.50;;;;;;;;;;5035336;28;20538;-45
2022/01/28 09:51:02;;;;;;;69.53;21.43;;;5.30;99.90;;;;;;5045639;28;21513;-45
2022/01/28 09:53:31;;;;;;;167.10;24.27;;;;;;;;;;5033331;28;20494;-46
2022/01/28 09:55:58;;;;;;;128.00;24.67;;;5.40;99.90;;;;;;5043906;28;20480;-46
2022/01/28 09:58:25;;;;;;;129.00;28.07;;;5.40;99.90;;;;;;5028813;28;20774;-45
2022/01/28 10:00:52;;;;;;;96.17;22.60;;;;;;;;;;5041846;28;20565;-46
2022/01/28 10:03:20;;;;;;;371.90;37.43;;;;;;;;;;5032827;28;20995;-46
2022/01/28 10:05:50;;;;;;;67.93;21.37;;;5.50;99.90;;;;;;5032675;28;20493;-45
2022/01/28 10:08:18;;;;;;;110.63;23.33;;;5.60;99.90;;;;;;5033322;28;20538;-46
2022/01/28 10:10:49;;;;;;;364.57;29.30;;;;;;;;;;5039530;28;20483;-46
2022/01/28 10:13:19;;;;;;;526.67;57.07;;;;;;;;;;5039326;28;21539;-47
2022/01/28 10:15:53;;;;;;;337.20;33.07;;;;;;;;;;5041122;28;20484;-47
2022/01/28 10:18:20;;;;;;;423.03;41.13;;;;;;;;;;5039220;28;20571;-46
2022/01/28 10:20:47;;;;;;;276.53;29.37;;;;;;;;;;5037839;28;20881;-46
2022/01/28 10:23:15;;;;;;;445.87;41.80;;;;;;;;;;5043925;28;21025;-46
2022/01/28 10:25:43;;;;;;;348.00;26.17;;;;;;;;;;5040808;28;20490;-46
2022/01/28 10:28:12;;;;;;;345.70;30.27;;;;;;;;;;5035365;28;20463;-46
2022/01/28 10:30:40;;;;;;;316.17;26.50;;;;;;;;;;5037196;28;20825;-45
2022/01/28 10:33:10;;;;;;;356.70;29.73;;;;;;;;;;5043957;28;20546;-46
2022/01/28 10:35:37;;;;;;;283.33;26.07;;;;;;;;;;5041926;28;20579;-45
2022/01/28 10:38:07;;;;;;;282.13;27.57;;;;;;;;;;5038844;28;20897;-54
2022/01/28 10:40:34;;;;;;;316.80;30.33;;;;;;;;;;5033604;28;22554;-46
2022/01/28 10:43:01;;;;;;;310.53;29.40;;;;;;;;;;5039364;28;20493;-45
2022/01/28 10:45:31;;;;;;;296.30;27.93;;;5.60;99.90;;;;;;5031550;28;20476;-46
2022/01/28 10:47:59;;;;;;;357.70;35.50;;;;;;;;;;5043985;28;21060;-45
2022/01/28 10:50:27;;;;;;;422.17;39.93;;;;;;;;;;5042414;28;20483;-46
2022/01/28 10:53:07;;;;;;;259.30;26.30;;;;;;;;;;5044808;28;20487;-46
2022/01/28 10:55:35;;;;;;;72.87;23.83;;;5.60;99.90;;;;;;5044993;28;23238;-46
2022/01/28 10:58:05;;;;;;;82.60;22.03;;;5.50;99.90;;;;;;5035174;28;20600;-46
2022/01/28 11:00:35;;;;;;;49.13;20.00;;;5.60;99.90;;;;;;5040208;28;20538;-46
2022/01/28 11:03:05;;;;;;;62.17;22.00;;;5.60;99.90;;;;;;5053598;28;20479;-46
2022/01/28 11:05:34;;;;;;;42.47;15.37;;;5.70;99.90;;;;;;5039036;28;20488;-45
2022/01/28 11:08:03;;;;;;;54.53;23.73;;;5.80;99.90;;;;;;5037150;28;20484;-45
2022/01/28 11:10:30;;;;;;;49.50;23.27;;;5.80;99.90;;;;;;5040378;28;20491;-44
2022/01/28 11:12:59;;;;;;;52.70;17.93;;;5.90;99.90;;;;;;5039254;28;20476;-44
2022/01/28 11:15:26;;;;;;;49.80;21.30;;;5.90;99.90;;;;;;5042847;28;20491;-45
2022/01/28 11:17:54;;;;;;;49.63;20.17;;;6.00;99.90;;;;;;5034681;28;20534;-45
2022/01/28 11:20:24;;;;;;;55.23;25.20;;;6.00;99.90;;;;;;5048459;28;20893;-45
2022/01/28 11:23:00;;;;;;;35.43;18.70;;;5.90;99.90;;;;;;5036891;28;20496;-45
2022/01/28 11:25:44;;;;;;;46.83;20.70;;;6.00;99.90;;;;;;5042860;28;20489;-46
2022/01/28 11:28:12;;;;;;;44.20;21.80;;;6.00;99.90;;;;;;5036084;28;20492;-45
2022/01/28 11:30:46;;;;;;;47.97;20.80;;;6.20;99.90;;;;;;5039533;28;21457;-46
2022/01/28 11:33:15;;;;;;;37.10;17.27;;;6.20;99.90;;;;;;5038926;28;20476;-46
2022/01/28 11:36:02;;;;;;;44.17;18.87;;;6.20;99.90;;;;;;5036118;28;20494;-46
2022/01/28 11:38:42;;;;;;;31.87;15.53;;;6.20;99.90;;;;;;5039799;28;20994;-46
2022/01/28 11:41:12;;;;;;;50.77;21.13;;;6.50;99.90;;;;;;5042341;28;20494;-45
2022/01/28 11:43:51;;;;;;;39.40;21.60;;;6.30;99.90;;;;;;5038353;28;20480;-45
2022/01/28 11:46:21;;;;;;;68.87;22.63;;;6.40;99.90;;;;;;5032688;28;20733;-45
2022/01/28 11:49:22;;;;;;;30.67;16.07;;;6.50;99.90;;;;;;5034984;28;20481;-45
2022/01/28 11:51:49;;;;;;;34.90;17.77;;;6.60;99.90;;;;;;5030372;28;20491;-46
2022/01/28 11:54:20;;;;;;;43.93;21.33;;;6.80;99.90;;;;;;5038986;28;20481;-46
2022/01/28 11:57:13;;;;;;;43.23;22.43;;;7.20;99.90;;;;;;5032005;28;20946;-46
2022/01/28 11:59:40;;;;;;;30.67;17.20;;;7.30;99.90;;;;;;5037251;28;20948;-46
2022/01/28 12:02:09;;;;;;;32.50;16.93;;;7.30;99.90;;;;;;5031363;28;20499;-45
2022/01/28 12:04:39;;;;;;;26.07;12.40;;;7.40;99.90;;;;;;5053352;28;21317;-45
2022/01/28 12:07:09;;;;;;;37.67;14.97;;;7.40;99.90;;;;;;5034401;28;20622;-45
2022/01/28 12:09:38;;;;;;;29.40;13.10;;;7.40;99.40;;;;;;5038221;28;20491;-46
2022/01/28 12:12:09;;;;;;;32.33;16.70;;;7.40;99.60;;;;;;5032890;28;20492;-45
2022/01/28 12:15:07;;;;;;;33.40;11.77;;;7.60;99.70;;;;;;5035871;28;20747;-44
2022/01/28 12:17:39;;;;;;;23.80;12.80;;;7.60;99.20;;;;;;5036260;28;20488;-45
2022/01/28 12:20:39;;;;;;;38.57;16.57;;;7.70;99.60;;;;;;5030229;28;20490;-45
2022/01/28 12:23:25;;;;;;;30.40;15.20;;;7.70;99.50;;;;;;5036167;28;20612;-45
2022/01/28 12:25:59;;;;;;;23.37;13.83;;;7.60;99.30;;;;;;5025777;28;20475;-46
2022/01/28 12:28:41;;;;;;;35.30;17.00;;;7.60;99.10;;;;;;5036661;28;20787;-46
2022/01/28 12:31:12;;;;;;;29.60;17.13;;;7.50;98.70;;;;;;5038718;28;20480;-45
2022/01/28 12:33:40;;;;;;;28.40;15.77;;;7.30;99.20;;;;;;5047057;28;20486;-46
2022/01/28 12:36:10;;;;;;;34.43;18.27;;;7.30;99.20;;;;;;5040884;28;20516;-46
2022/01/28 12:38:42;;;;;;;29.27;15.77;;;7.20;99.40;;;;;;5030647;28;20483;-45
2022/01/28 12:41:10;;;;;;;32.90;18.23;;;7.10;99.30;;;;;;5038677;28;20486;-45
2022/01/28 12:43:39;;;;;;;31.37;16.83;;;7.10;99.50;;;;;;5043467;28;20480;-45
2022/01/28 12:46:07;;;;;;;43.97;17.47;;;6.90;99.50;;;;;;5041827;28;20684;-45
2022/01/28 12:48:34;;;;;;;32.30;18.57;;;6.90;99.80;;;;;;5043093;28;20493;-46
2022/01/28 12:51:03;;;;;;;35.30;17.70;;;6.90;99.60;;;;;;5037563;28;20750;-46
2022/01/28 12:53:35;;;;;;;32.17;18.20;;;6.70;99.90;;;;;;5039736;28;20528;-46
2022/01/28 12:56:04;;;;;;;26.83;16.20;;;6.70;99.90;;;;;;5038636;28;20965;-47
2022/01/28 12:58:33;;;;;;;32.00;15.17;;;6.50;99.90;;;;;;5036440;28;20493;-46
2022/01/28 13:01:10;;;;;;;37.53;17.87;;;6.60;99.90;;;;;;5039298;28;20481;-46
2022/01/28 13:03:44;;;;;;;29.30;16.40;;;6.50;99.90;;;;;;5040861;28;20491;-46
2022/01/28 13:06:29;;;;;;;39.20;18.00;;;6.40;99.90;;;;;;5040651;28;20482;-46
2022/01/28 13:08:56;;;;;;;40.30;21.53;;;6.20;99.90;;;;;;5039921;28;20470;-47
2022/01/28 13:11:24;;;;;;;42.40;20.00;;;6.20;99.90;;;;;;5041892;28;21085;-46
2022/01/28 13:13:53;;;;;;;40.47;21.00;;;6.20;99.90;;;;;;5038607;28;20921;-47
2022/01/28 13:16:33;;;;;;;38.33;21.00;;;6.20;99.90;;;;;;5039369;28;21155;-46
2022/01/28 13:19:02;;;;;;;30.37;16.20;;;6.10;99.90;;;;;;5038523;28;20472;-45
2022/01/28 13:21:30;;;;;;;57.20;20.10;;;6.30;99.90;;;;;;5042075;28;20481;-46
2022/01/28 13:24:11;;;;;;;37.30;19.97;;;6.10;99.90;;;;;;5039119;28;20482;-46
2022/01/28 13:26:53;;;;;;;32.53;18.23;;;6.10;99.90;;;;;;5039835;28;21629;-47
2022/01/28 13:29:29;;;;;;;25.97;11.67;;;6.20;99.90;;;;;;5047912;28;20469;-47
2022/01/28 13:31:57;;;;;;;42.87;19.40;;;6.20;99.90;;;;;;5037716;28;20479;-47
2022/01/28 13:34:24;;;;;;;35.17;20.53;;;6.30;99.90;;;;;;5041633;28;20476;-47
2022/01/28 13:36:53;;;;;;;31.43;18.70;;;6.20;99.90;;;;;;5038629;28;20471;-47
2022/01/28 13:39:23;;;;;;;32.13;19.20;;;6.30;99.90;;;;;;5041026;28;20503;-47
2022/01/28 13:42:07;;;;;;;35.17;17.87;;;6.30;99.90;;;;;;5037379;28;20480;-47
2022/01/28 13:44:34;;;;;;;32.13;17.63;;;6.30;99.90;;;;;;5039053;28;20978;-47
2022/01/28 13:47:03;;;;;;;37.50;20.27;;;6.30;99.90;;;;;;5038119;28;20668;-47
2022/01/28 13:49:31;;;;;;;37.60;20.70;;;6.30;99.90;;;;;;5042851;28;20488;-47
2022/01/28 13:52:09;;;;;;;38.90;20.07;;;6.30;99.90;;;;;;5034191;28;20489;-46
2022/01/28 13:54:37;;;;;;;38.60;18.10;;;6.30;99.90;;;;;;5038023;28;20562;-47
2022/01/28 13:57:06;;;;;;;31.10;18.60;;;6.30;99.90;;;;;;5035152;28;20891;-48
2022/01/28 13:59:34;;;;;;;34.57;18.67;;;6.30;99.90;;;;;;5039237;28;20502;-53
2022/01/28 14:02:02;;;;;;;32.90;18.00;;;6.20;99.90;;;;;;5038283;28;20480;-47
2022/01/28 14:04:33;;;;;;;31.53;18.63;;;6.20;99.90;;;;;;5036162;28;20554;-48
2022/01/28 14:07:15;;;;;;;47.90;18.73;;;6.20;99.90;;;;;;5033932;28;20483;-47
2022/01/28 14:09:52;;;;;;;37.90;19.40;;;6.20;99.90;;;;;;5036638;28;20492;-47
2022/01/28 14:12:45;;;;;;;37.33;17.67;;;6.20;99.90;;;;;;5034472;28;21156;-47
2022/01/28 14:15:16;;;;;;;38.10;20.93;;;6.20;99.90;;;;;;5040389;28;20484;-47
2022/01/28 14:17:44;;;;;;;39.23;18.67;;;6.20;99.90;;;;;;5043738;28;20595;-47
2022/01/28 14:20:11;;;;;;;21.10;14.00;;;6.10;99.90;;;;;;5034383;28;20981;-47
2022/01/28 14:22:38;;;;;;;35.73;19.33;;;;;;;;;;5041924;28;20510;-47
2022/01/28 14:25:07;;;;;;;34.47;15.60;;;6.00;99.90;;;;;;5033410;28;20479;-46
2022/01/28 14:30:22;;;;;;;37.53;22.00;;;6.00;99.90;;;;;;5041737;28;20487;-47
2022/01/28 14:32:49;;;;;;;32.43;17.77;;;6.00;99.90;;;;;;5049698;28;20544;-47
2022/01/28 14:35:17;;;;;;;29.90;18.60;;;6.10;99.90;;;;;;5035778;28;20813;-47
2022/01/28 14:37:44;;;;;;;28.03;15.40;;;6.00;99.90;;;;;;5054693;28;20604;-47